Time;durP1;ratioP1;P1;durP2;ratioP2;P2;SDS_P1;SDS_P2;PMS_P1;PMS_P2;Temp;Humidity;BMP_temperature;BMP_pressure;BME280_temperature;BME280_humidity;BME280_pressure;Samples;Min_cycle;Max_cycle;Signal;HPM_P1;HPM_P2
2023/06/13 00:00:35;;;;;;;;;;;;;;;;;;5074299;28;19990;-79
2023/06/13 00:03:02;;;;;;;;;;;;;;;;;;5075574;28;19959;-79
2023/06/13 00:05:27;;;;;;;;;;;;;;;;;;5074567;28;19967;-78
2023/06/13 00:07:53;;;;;;;;;;;;;;;;;;5075475;28;19955;-78
2023/06/13 00:10:19;;;;;;;;;;;;;;;;;;5074911;28;19963;-79
2023/06/13 00:12:49;;;;;;;;;;;;;;;;;;5075352;28;20050;-78
2023/06/13 00:15:15;;;;;;;;;;;;;;;;;;5075926;28;20317;-78
2023/06/13 00:17:41;;;;;;;;;;;;;;;;;;5075290;28;20034;-81
2023/06/13 00:20:08;;;;;;;;;;;;;;;;;;5075127;28;20427;-79
2023/06/13 00:22:34;;;;;;;;;;;;;;;;;;5075203;28;19956;-79
2023/06/13 00:25:00;;;;;;;;;;;;;;;;;;5075644;28;20431;-79
2023/06/13 00:27:26;;;;;;;;;;;;;;;;;;5075060;28;19955;-77
2023/06/13 00:29:53;;;;;;;;;;;;;;;;;;5073800;28;20429;-79
2023/06/13 00:32:19;;;;;;;;;;;;;;;;;;5073399;28;19959;-78
2023/06/13 00:34:46;;;;;;;;;;;;;;;;;;5075019;28;20024;-77
2023/06/13 00:37:13;;;;;;;;;;;;;;;;;;5073592;28;20322;-78
2023/06/13 00:39:38;;;;;;;;;;;;;;;;;;5074831;28;20472;-78
2023/06/13 00:42:06;;;;;;;;;;;;;;;;;;5074758;28;19959;-78
2023/06/13 00:44:32;;;;;;;;;;;;;;;;;;5072989;28;20003;-77
2023/06/13 00:46:58;;;;;;;;;;;;;;;;;;5074679;28;19956;-79
2023/06/13 00:49:25;;;;;;;;;;;;;;;;;;5074866;28;20042;-80
2023/06/13 00:51:51;;;;;;;;;;;;;;;;;;5074847;28;20046;-79
2023/06/13 00:54:18;;;;;;;;;;;;;;;;;;5074484;28;20333;-78
2023/06/13 00:56:44;;;;;;;;;;;;;;;;;;5074532;28;20026;-77
2023/06/13 00:59:10;;;;;;;;;;;;;;;;;;5074432;28;20094;-80
2023/06/13 01:01:40;;;;;;;;;;;;;;;;;;5074416;28;20042;-77
2023/06/13 01:04:07;;;;;;;;;;;;;;;;;;5074369;28;19963;-79
2023/06/13 01:06:33;;;;;;;;;;;;;;;;;;5074361;28;19956;-80
2023/06/13 01:09:00;;;;;;;;;;;;;;;;;;5074232;28;19977;-79
2023/06/13 01:11:25;;;;;;;;;;;;;;;;;;5074781;28;20005;-79
2023/06/13 01:13:51;;;;;;;;;;;;;;;;;;5074415;28;20302;-79
2023/06/13 01:16:17;;;;;;;;;;;;;;;;;;5074685;28;19955;-77
2023/06/13 01:18:43;;;;;;;;;;;;;;;;;;5074036;28;20307;-78
2023/06/13 01:21:09;;;;;;;;;;;;;;;;;;5074192;28;20032;-79
2023/06/13 01:23:36;;;;;;;;;;;;;;;;;;5073978;28;19963;-79
2023/06/13 01:26:02;;;;;;;;;;;;;;;;;;5074558;28;19955;-77
2023/06/13 01:28:28;;;;;;;;;;;;;;;;;;5073960;28;19978;-78
2023/06/13 01:30:54;;;;;;;;;;;;;;;;;;5074426;28;20063;-77
2023/06/13 01:33:20;;;;;;;;;;;;;;;;;;5073852;28;20005;-79
2023/06/13 01:35:46;;;;;;;;;;;;;;;;;;5073736;28;20380;-77
2023/06/13 01:38:12;;;;;;;;;;;;;;;;;;5074108;28;19994;-79
2023/06/13 01:40:38;;;;;;;;;;;;;;;;;;5073749;28;19975;-78
2023/06/13 01:43:03;;;;;;;;;;;;;;;;;;5073742;28;19991;-78
2023/06/13 01:45:29;;;;;;;;;;;;;;;;;;5072427;28;19960;-81
2023/06/13 01:47:55;;;;;;;;;;;;;;;;;;5074283;28;19960;-77
2023/06/13 01:50:21;;;;;;;;;;;;;;;;;;5073889;28;20055;-77
2023/06/13 01:52:47;;;;;;;;;;;;;;;;;;5073935;28;19964;-78
2023/06/13 01:55:14;;;;;;;;;;;;;;;;;;5072347;28;20009;-77
2023/06/13 01:57:40;;;;;;;;;;;;;;;;;;5074187;28;20064;-77
2023/06/13 02:00:06;;;;;;;;;;;;;;;;;;5073502;28;20416;-77
2023/06/13 02:02:31;;;;;;;;;;;;;;;;;;5073568;28;19957;-79
2023/06/13 02:04:57;;;;;;;;;;;;;;;;;;5073775;28;19955;-79
2023/06/13 02:07:24;;;;;;;;;;;;;;;;;;5073485;28;20328;-77
2023/06/13 02:09:51;;;;;;;;;;;;;;;;;;5073483;28;19963;-78
2023/06/13 02:12:17;;;;;;;;;;;;;;;;;;5071940;28;19960;-79
2023/06/13 02:14:43;;;;;;;;;;;;;;;;;;5073686;28;19955;-80
2023/06/13 02:17:09;;;;;;;;;;;;;;;;;;5073373;28;19978;-78
2023/06/13 02:19:35;;;;;;;;;;;;;;;;;;5072073;28;19987;-76
2023/06/13 02:22:01;;;;;;;;;;;;;;;;;;5073373;28;19955;-80
2023/06/13 02:24:27;;;;;;;;;;;;;;;;;;5074094;28;19955;-79
2023/06/13 02:26:53;;;;;;;;;;;;;;;;;;5073312;28;20043;-77
2023/06/13 02:29:20;;;;;;;;;;;;;;;;;;5072044;28;20423;-79
2023/06/13 02:31:46;;;;;;;;;;;;;;;;;;5073369;28;19956;-77
2023/06/13 02:34:12;;;;;;;;;;;;;;;;;;5076040;28;20128;-79
2023/06/13 02:36:38;;;;;;;;;;;;;;;;;;5077774;28;19956;-79
2023/06/13 02:39:04;;;;;;;;;;;;;;;;;;5077070;28;19998;-77
2023/06/13 02:41:30;;;;;;;;;;;;;;;;;;5077368;28;19962;-81
2023/06/13 02:43:56;;;;;;;;;;;;;;;;;;5076869;28;19995;-78
2023/06/13 02:46:21;;;;;;;;;;;;;;;;;;5077237;28;19956;-78
2023/06/13 02:48:47;;;;;;;;;;;;;;;;;;5077181;28;19956;-78
2023/06/13 02:51:13;;;;;;;;;;;;;;;;;;5076924;28;19991;-79
2023/06/13 02:53:39;;;;;;;;;;;;;;;;;;5077390;28;19956;-77
2023/06/13 02:56:06;;;;;;;;;;;;;;;;;;5076781;28;19966;-79
2023/06/13 02:58:32;;;;;;;;;;;;;;;;;;5077103;28;19956;-78
2023/06/13 03:00:58;;;;;;;;;;;;;;;;;;5076609;28;19975;-77
2023/06/13 03:03:24;;;;;;;;;;;;;;;;;;5076667;28;19956;-80
2023/06/13 03:05:56;;;;;;;;;;;;;;;;;;5076713;28;20045;-78
2023/06/13 03:08:22;;;;;;;;;;;;;;;;;;5076934;28;19979;-78
2023/06/13 03:10:50;;;;;;;;;;;;;;;;;;5076557;28;20307;-77
2023/06/13 03:13:16;;;;;;;;;;;;;;;;;;5076511;28;20414;-79
2023/06/13 03:15:43;;;;;;;;;;;;;;;;;;5076451;28;19962;-78
2023/06/13 03:18:09;;;;;;;;;;;;;;;;;;5076453;28;19962;-79
2023/06/13 03:20:37;;;;;;;;;;;;;;;;;;5076551;28;20066;-79
2023/06/13 03:23:02;;;;;;;;;;;;;;;;;;5076314;28;19956;-79
2023/06/13 03:25:29;;;;;;;;;;;;;;;;;;5076824;28;19960;-77
2023/06/13 03:27:55;;;;;;;;;;;;;;;;;;5076250;28;20433;-78
2023/06/13 03:30:21;;;;;;;;;;;;;;;;;;5076737;28;20001;-79
2023/06/13 03:32:47;;;;;;;;;;;;;;;;;;5076417;28;19959;-77
2023/06/13 03:35:13;;;;;;;;;;;;;;;;;;5076036;28;20359;-79
2023/06/13 03:37:39;;;;;;;;;;;;;;;;;;5076021;28;20054;-78
2023/06/13 03:40:05;;;;;;;;;;;;;;;;;;5076210;28;19979;-79
2023/06/13 03:42:31;;;;;;;;;;;;;;;;;;5075762;28;20320;-76
2023/06/13 03:44:56;;;;;;;;;;;;;;;;;;5075014;28;19960;-77
2023/06/13 03:47:22;;;;;;;;;;;;;;;;;;5075871;28;19955;-77
2023/06/13 03:49:48;;;;;;;;;;;;;;;;;;5074574;28;19960;-79
2023/06/13 03:52:14;;;;;;;;;;;;;;;;;;5076094;28;20001;-79
2023/06/13 03:54:40;;;;;;;;;;;;;;;;;;5076113;28;19956;-81
2023/06/13 03:57:10;;;;;;;;;;;;;;;;;;5076296;28;19955;-78
2023/06/13 03:59:36;;;;;;;;;;;;;;;;;;5074340;28;19983;-77
2023/06/13 04:02:02;;;;;;;;;;;;;;;;;;5074592;28;19967;-78
2023/06/13 04:04:28;;;;;;;;;;;;;;;;;;5076124;28;19962;-79
2023/06/13 04:06:55;;;;;;;;;;;;;;;;;;5075499;28;20337;-79
2023/06/13 04:09:23;;;;;;;;;;;;;;;;;;5075492;28;20074;-80
2023/06/13 04:11:49;;;;;;;;;;;;;;;;;;5076034;28;20004;-79
2023/06/13 04:14:14;;;;;;;;;;;;;;;;;;5075344;28;19960;-80
2023/06/13 04:16:40;;;;;;;;;;;;;;;;;;5075861;28;19955;-80
2023/06/13 04:19:07;;;;;;;;;;;;;;;;;;5075184;28;19955;-77
2023/06/13 04:21:33;;;;;;;;;;;;;;;;;;5073979;28;19960;-77
2023/06/13 04:23:58;;;;;;;;;;;;;;;;;;5075443;28;19955;-78
2023/06/13 04:26:25;;;;;;;;;;;;;;;;;;5075671;28;20421;-81
2023/06/13 04:28:52;;;;;;;;;;;;;;;;;;5075115;28;20054;-79
2023/06/13 04:31:20;;;;;;;;;;;;;;;;;;5073763;28;20009;-77
2023/06/13 04:33:46;;;;;;;;;;;;;;;;;;5075212;28;19976;-78
2023/06/13 04:36:13;;;;;;;;;;;;;;;;;;5074936;28;20001;-77
2023/06/13 04:38:39;;;;;;;;;;;;;;;;;;5075153;28;19956;-80
2023/06/13 04:41:05;;;;;;;;;;;;;;;;;;5074795;28;20025;-79
2023/06/13 04:43:35;;;;;;;;;;;;;;;;;;5074723;28;19995;-81
2023/06/13 04:46:04;;;;;;;;;;;;;;;;;;5074795;28;19983;-78
2023/06/13 04:48:30;;;;;;;;;;;;;;;;;;5074698;28;19969;-77
2023/06/13 04:50:56;;;;;;;;;;;;;;;;;;5073320;28;20003;-78
2023/06/13 04:53:23;;;;;;;;;;;;;;;;;;5074628;28;20470;-79
2023/06/13 04:55:49;;;;;;;;;;;;;;;;;;5074302;28;19993;-78
2023/06/13 04:58:17;;;;;;;;;;;;;;;;;;5074792;28;19960;-78
2023/06/13 05:00:47;;;;;;;;;;;;;;;;;;5073113;28;20001;-78
2023/06/13 05:03:16;;;;;;;;;;;;;;;;;;5074943;28;19956;-77
2023/06/13 05:05:42;;;;;;;;;;;;;;;;;;5074638;28;19956;-77
2023/06/13 05:08:08;;;;;;;;;;;;;;;;;;5074294;28;20371;-80
2023/06/13 05:10:34;;;;;;;;;;;;;;;;;;5074510;28;19959;-79
2023/06/13 05:13:01;;;;;;;;;;;;;;;;;;5074216;28;20443;-77
2023/06/13 05:15:26;;;;;;;;;;;;;;;;;;5072890;28;19986;-78
2023/06/13 05:17:54;;;;;;;;;;;;;;;;;;5072867;28;19967;-79
2023/06/13 05:20:25;;;;;;;;;;;;;;;;;;5074018;28;19975;-77
2023/06/13 05:22:52;;;;;;;;;;;;;;;;;;5074662;28;20340;-77
2023/06/13 05:25:18;;;;;;;;;;;;;;;;;;5074558;28;19955;-77
2023/06/13 05:27:44;;;;;;;;;;;;;;;;;;5073968;28;20330;-79
2023/06/13 05:30:10;;;;;;;;;;;;;;;;;;5074132;28;20046;-77
2023/06/13 05:32:36;;;;;;;;;;;;;;;;;;5073864;28;19955;-80
2023/06/13 05:35:03;;;;;;;;;;;;;;;;;;5074048;28;19972;-78
2023/06/13 05:37:29;;;;;;;;;;;;;;;;;;5073868;28;19956;-77
2023/06/13 05:39:55;;;;;;;;;;;;;;;;;;5073823;28;19990;-79
2023/06/13 05:42:21;;;;;;;;;;;;;;;;;;5073838;28;19955;-79
2023/06/13 05:44:47;;;;;;;;;;;;;;;;;;5074004;28;20058;-77
2023/06/13 05:47:12;;;;;;;;;;;;;;;;;;5073769;28;20009;-79
2023/06/13 05:49:38;;;;;;;;;;;;;;;;;;5073956;28;19956;-78
2023/06/13 05:52:04;;;;;;;;;;;;;;;;;;5073946;28;20428;-78
2023/06/13 05:54:30;;;;;;;;;;;;;;;;;;5074245;28;19963;-77
2023/06/13 05:56:56;;;;;;;;;;;;;;;;;;5073595;28;19955;-79
2023/06/13 05:59:22;;;;;;;;;;;;;;;;;;5073468;28;20406;-77
2023/06/13 06:01:49;;;;;;;;;;;;;;;;;;5073561;28;20006;-79
2023/06/13 06:04:15;;;;;;;;;;;;;;;;;;5072292;28;20433;-78
2023/06/13 06:06:41;;;;;;;;;;;;;;;;;;5073520;28;19978;-76
2023/06/13 06:09:08;;;;;;;;;;;;;;;;;;5072783;28;20432;-78
2023/06/13 06:11:35;;;;;;;;;;;;;;;;;;5073501;28;20417;-77
2023/06/13 06:14:00;;;;;;;;;;;;;;;;;;5073494;28;19955;-79
2023/06/13 06:16:26;;;;;;;;;;;;;;;;;;5073455;28;20001;-78
2023/06/13 06:18:53;;;;;;;;;;;;;;;;;;5073992;28;19956;-79
2023/06/13 06:21:19;;;;;;;;;;;;;;;;;;5073446;28;19975;-78
2023/06/13 06:23:45;;;;;;;;;;;;;;;;;;5073640;28;20005;-79
2023/06/13 06:26:11;;;;;;;;;;;;;;;;;;5073795;28;19959;-80
2023/06/13 06:28:37;;;;;;;;;;;;;;;;;;5073629;28;19987;-77
2023/06/13 06:31:05;;;;;;;;;;;;;;;;;;5073261;28;20422;-76
2023/06/13 06:33:31;;;;;;;;;;;;;;;;;;5073252;28;19956;-77
2023/06/13 06:35:57;;;;;;;;;;;;;;;;;;5073190;28;19967;-79
2023/06/13 06:38:22;;;;;;;;;;;;;;;;;;5073170;28;19955;-78
2023/06/13 06:40:48;;;;;;;;;;;;;;;;;;5071631;28;20022;-76
2023/06/13 06:43:14;;;;;;;;;;;;;;;;;;5073327;28;19995;-77
2023/06/13 06:45:40;;;;;;;;;;;;;;;;;;5073156;28;20013;-78
2023/06/13 06:48:06;;;;;;;;;;;;;;;;;;5073672;28;20413;-79
2023/06/13 06:50:32;;;;;;;;;;;;;;;;;;5071819;28;19966;-78
2023/06/13 06:52:58;;;;;;;;;;;;;;;;;;5071421;28;20503;-72
2023/06/13 06:55:24;;;;;;;;;;;;;;;;;;5073054;28;19956;-73
2023/06/13 06:57:53;;;;;;;;;;;;;;;;;;5072886;28;19967;-72
2023/06/13 07:00:19;;;;;;;;;;;;;;;;;;5073508;28;20337;-80
2023/06/13 07:02:45;;;;;;;;;;;;;;;;;;5072694;28;19960;-80
2023/06/13 07:05:10;;;;;;;;;;;;;;;;;;5073098;28;19963;-76
2023/06/13 07:07:36;;;;;;;;;;;;;;;;;;5073109;28;19963;-71
2023/06/13 07:10:02;;;;;;;;;;;;;;;;;;5072309;28;19986;-70
2023/06/13 07:12:28;;;;;;;;;;;;;;;;;;5073139;28;19956;-73
2023/06/13 07:14:55;;;;;;;;;;;;;;;;;;5072230;28;19964;-71
2023/06/13 07:17:21;;;;;;;;;;;;;;;;;;5072355;28;19991;-75
2023/06/13 07:19:46;;;;;;;;;;;;;;;;;;5072784;28;20029;-74
2023/06/13 07:22:12;;;;;;;;;;;;;;;;;;5076329;28;19956;-72
2023/06/13 07:24:38;;;;;;;;;;;;;;;;;;5075520;28;20397;-69
2023/06/13 07:27:04;;;;;;;;;;;;;;;;;;5076391;28;19963;-70
2023/06/13 07:29:30;;;;;;;;;;;;;;;;;;5075595;28;19964;-69
2023/06/13 07:31:56;;;;;;;;;;;;;;;;;;5076017;28;19963;-68
2023/06/13 07:34:22;;;;;;;;;;;;;;;;;;5075675;28;19987;-69
2023/06/13 07:36:48;;;;;;;;;;;;;;;;;;5076732;28;20416;-65
2023/06/13 07:39:14;;;;;;;;;;;;;;;;;;5075755;28;20421;-73
2023/06/13 07:41:40;;;;;;;;;;;;;;;;;;5073772;28;19966;-69
2023/06/13 07:44:06;;;;;;;;;;;;;;;;;;5075638;28;20014;-72
2023/06/13 07:46:32;;;;;;;;;;;;;;;;;;5075582;28;19967;-71
2023/06/13 07:48:57;;;;;;;;;;;;;;;;;;5075526;28;19963;-69
2023/06/13 07:51:24;;;;;;;;;;;;;;;;;;5075493;28;20453;-70
2023/06/13 07:53:49;;;;;;;;;;;;;;;;;;5075197;28;19972;-69
2023/06/13 07:56:16;;;;;;;;;;;;;;;;;;5075594;28;20425;-70
2023/06/13 07:58:42;;;;;;;;;;;;;;;;;;5075560;28;20382;-67
2023/06/13 08:01:08;;;;;;;;;;;;;;;;;;5075122;28;20022;-69
2023/06/13 08:03:34;;;;;;;;;;;;;;;;;;5075987;28;19963;-68
2023/06/13 08:06:00;;;;;;;;;;;;;;;;;;5073964;28;20070;-81
2023/06/13 08:08:26;;;;;;;;;;;;;;;;;;5073749;28;19986;-66
2023/06/13 08:10:52;;;;;;;;;;;;;;;;;;5063894;28;19960;-70
2023/06/13 08:13:17;;;;;;;;;;;;;;;;;;5071247;28;20048;-70
2023/06/13 08:15:43;;;;;;;;;;;;;;;;;;5073758;28;20078;-69
2023/06/13 08:18:09;;;;;;;;;;;;;;;;;;5073850;28;19959;-73
2023/06/13 08:20:36;;;;;;;;;;;;;;;;;;5072799;28;20457;-72
2023/06/13 08:23:02;;;;;;;;;;;;;;;;;;5074025;28;20046;-75
2023/06/13 08:25:27;;;;;;;;;;;;;;;;;;5074688;28;19954;-74
2023/06/13 08:27:53;;;;;;;;;;;;;;;;;;5075076;28;19959;-73
2023/06/13 08:30:19;;;;;;;;;;;;;;;;;;5073606;28;20314;-75
2023/06/13 08:32:46;;;;;;;;;;;;;;;;;;5074002;28;19967;-71
2023/06/13 08:35:12;;;;;;;;;;;;;;;;;;5074539;28;19982;-68
2023/06/13 08:37:38;;;;;;;;;;;;;;;;;;5072933;28;19960;-71
2023/06/13 08:40:05;;;;;;;;;;;;;;;;;;5073429;28;19976;-70
2023/06/13 08:42:31;;;;;;;;;;;;;;;;;;5074145;28;19960;-70
2023/06/13 08:44:57;;;;;;;;;;;;;;;;;;5073729;28;19974;-70
2023/06/13 08:47:23;;;;;;;;;;;;;;;;;;5074555;28;19959;-71
2023/06/13 08:49:49;;;;;;;;;;;;;;;;;;5074640;28;20378;-71
2023/06/13 08:52:15;;;;;;;;;;;;;;;;;;5074163;28;20037;-70
2023/06/13 08:54:41;;;;;;;;;;;;;;;;;;5074114;28;20037;-71
2023/06/13 08:57:07;;;;;;;;;;;;;;;;;;5073839;28;19960;-75
2023/06/13 08:59:34;;;;;;;;;;;;;;;;;;5072662;28;19984;-69
2023/06/13 09:02:00;;;;;;;;;;;;;;;;;;5073985;28;20057;-69
2023/06/13 09:04:29;;;;;;;;;;;;;;;;;;5074382;28;20455;-71
2023/06/13 09:06:55;;;;;;;;;;;;;;;;;;5072545;28;19964;-70
2023/06/13 09:09:21;;;;;;;;;;;;;;;;;;5074298;28;19961;-76
2023/06/13 09:11:47;;;;;;;;;;;;;;;;;;5074040;28;19963;-74
2023/06/13 09:14:13;;;;;;;;;;;;;;;;;;5074239;28;20334;-71
2023/06/13 09:16:38;;;;;;;;;;;;;;;;;;5073451;28;20054;-70
2023/06/13 09:19:04;;;;;;;;;;;;;;;;;;5073666;28;20066;-73
2023/06/13 09:21:31;;;;;;;;;;;;;;;;;;5073318;28;20026;-72
2023/06/13 09:23:57;;;;;;;;;;;;;;;;;;5068404;28;20018;-71
2023/06/13 09:26:23;;;;;;;;;;;;;;;;;;5055948;28;19956;-71
2023/06/13 09:28:49;;;;;;;;;;;;;;;;;;5062483;28;20388;-71
2023/06/13 09:31:15;;;;;;;;;;;;;;;;;;5054063;28;19967;-71
2023/06/13 09:33:41;;;;;;;;;;;;;;;;;;5054162;28;19987;-72
2023/06/13 09:36:07;;;;;;;;;;;;;;;;;;5057556;28;19959;-72
2023/06/13 09:38:34;;;;;;;;;;;;;;;;;;5072910;28;20317;-72
2023/06/13 09:41:00;;;;;;;;;;;;;;;;;;5073292;28;20105;-72
2023/06/13 09:43:26;;;;;;;;;;;;;;;;;;5072503;28;20027;-74
2023/06/13 09:45:52;;;;;;;;;;;;;;;;;;5073094;28;20010;-73
2023/06/13 09:48:18;;;;;;;;;;;;;;;;;;5054060;28;19960;-72
2023/06/13 09:50:43;;;;;;;;;;;;;;;;;;5060103;28;19955;-74
2023/06/13 09:53:10;;;;;;;;;;;;;;;;;;5073911;28;20001;-71
2023/06/13 09:55:35;;;;;;;;;;;;;;;;;;5073958;28;19959;-71
2023/06/13 09:58:01;;;;;;;;;;;;;;;;;;5073342;28;19969;-70
2023/06/13 10:00:28;;;;;;;;;;;;;;;;;;5072782;28;19986;-71
2023/06/13 10:02:54;;;;;;;;;;;;;;;;;;5072235;28;19960;-71
2023/06/13 10:05:20;;;;;;;;;;;;;;;;;;5072611;28;20016;-70
2023/06/13 10:07:46;;;;;;;;;;;;;;;;;;5073586;28;19959;-68
2023/06/13 10:10:11;;;;;;;;;;;;;;;;;;5073188;28;19956;-69
2023/06/13 10:12:38;;;;;;;;;;;;;;;;;;5073005;28;20445;-68
2023/06/13 10:15:03;;;;;;;;;;;;;;;;;;5072669;28;19986;-67
2023/06/13 10:17:29;;;;;;;;;;;;;;;;;;5072965;28;20433;-70
2023/06/13 10:19:55;;;;;;;;;;;;;;;;;;5072101;28;19984;-70
2023/06/13 10:22:22;;;;;;;;;;;;;;;;;;5072742;28;20024;-70
2023/06/13 10:24:48;;;;;;;;;;;;;;;;;;5072094;28;20424;-70
2023/06/13 10:27:14;;;;;;;;;;;;;;;;;;5073869;28;20025;-70
2023/06/13 10:29:40;;;;;;;;;;;;;;;;;;5073574;28;20013;-70
2023/06/13 10:32:06;;;;;;;;;;;;;;;;;;5073299;28;19991;-70
2023/06/13 10:34:34;;;;;;;;;;;;;;;;;;5073441;28;20065;-70
2023/06/13 10:37:00;;;;;;;;;;;;;;;;;;5073523;28;20021;-70
2023/06/13 10:39:26;;;;;;;;;;;;;;;;;;5073492;28;20418;-70
2023/06/13 10:41:52;;;;;;;;;;;;;;;;;;5073440;28;19955;-70
2023/06/13 10:44:18;;;;;;;;;;;;;;;;;;5072854;28;19998;-70
2023/06/13 10:46:44;;;;;;;;;;;;;;;;;;5073184;28;20003;-70
2023/06/13 10:49:10;;;;;;;;;;;;;;;;;;5071894;28;20421;-70
2023/06/13 10:51:36;;;;;;;;;;;;;;;;;;5073108;28;20029;-70
2023/06/13 10:54:02;;;;;;;;;;;;;;;;;;5074060;28;19955;-70
2023/06/13 10:56:29;;;;;;;;;;;;;;;;;;5076839;28;20417;-70
2023/06/13 10:58:55;;;;;;;;;;;;;;;;;;5077099;28;19986;-70
2023/06/13 11:01:21;;;;;;;;;;;;;;;;;;5076675;28;20022;-70
2023/06/13 11:03:46;;;;;;;;;;;;;;;;;;5076690;28;20306;-70
2023/06/13 11:06:12;;;;;;;;;;;;;;;;;;5076972;28;19956;-70
2023/06/13 11:08:38;;;;;;;;;;;;;;;;;;5076602;28;20322;-70
2023/06/13 11:11:04;;;;;;;;;;;;;;;;;;5076581;28;19963;-70
2023/06/13 11:13:30;;;;;;;;;;;;;;;;;;5077079;28;20375;-70
2023/06/13 11:15:56;;;;;;;;;;;;;;;;;;5076904;28;19956;-70
2023/06/13 11:18:22;;;;;;;;;;;;;;;;;;5077039;28;19956;-70
2023/06/13 11:20:51;;;;;;;;;;;;;;;;;;5076305;28;19979;-70
2023/06/13 11:23:18;;;;;;;;;;;;;;;;;;5076328;28;19963;-70
2023/06/13 11:25:44;;;;;;;;;;;;;;;;;;5076893;28;20421;-70
2023/06/13 11:28:10;;;;;;;;;;;;;;;;;;5076363;28;20076;-70
2023/06/13 11:30:36;;;;;;;;;;;;;;;;;;5076221;28;19962;-70
2023/06/13 11:33:02;;;;;;;;;;;;;;;;;;5076707;28;20050;-70
2023/06/13 11:35:28;;;;;;;;;;;;;;;;;;5076079;28;19971;-70
2023/06/13 11:37:56;;;;;;;;;;;;;;;;;;5076122;28;19956;-70
2023/06/13 11:40:23;;;;;;;;;;;;;;;;;;5076375;28;20018;-70
2023/06/13 11:42:49;;;;;;;;;;;;;;;;;;5074418;28;20045;-70
2023/06/13 11:45:15;;;;;;;;;;;;;;;;;;5076603;28;20389;-70
2023/06/13 11:47:41;;;;;;;;;;;;;;;;;;5076252;28;20054;-70
2023/06/13 11:50:07;;;;;;;;;;;;;;;;;;5076466;28;20055;-70
2023/06/13 11:52:33;;;;;;;;;;;;;;;;;;5075860;28;20436;-70
2023/06/13 11:54:59;;;;;;;;;;;;;;;;;;5076049;28;20001;-70
2023/06/13 11:57:25;;;;;;;;;;;;;;;;;;5076086;28;20058;-70
2023/06/13 11:59:51;;;;;;;;;;;;;;;;;;5075612;28;20120;-70
2023/06/13 12:02:18;;;;;;;;;;;;;;;;;;5075696;28;19962;-70
2023/06/13 12:04:44;;;;;;;;;;;;;;;;;;5075885;28;20440;-70
2023/06/13 12:07:10;;;;;;;;;;;;;;;;;;5074761;28;19960;-70
2023/06/13 12:09:36;;;;;;;;;;;;;;;;;;5076021;28;20441;-70
2023/06/13 12:12:02;;;;;;;;;;;;;;;;;;5075387;28;20425;-70
2023/06/13 12:14:30;;;;;;;;;;;;;;;;;;5075686;28;20002;-70
2023/06/13 12:16:56;;;;;;;;;;;;;;;;;;5075394;28;19986;-69
2023/06/13 12:19:22;;;;;;;;;;;;;;;;;;5075297;28;19989;-70
2023/06/13 12:21:48;;;;;;;;;;;;;;;;;;5075561;28;20002;-70
2023/06/13 12:24:14;;;;;;;;;;;;;;;;;;5074459;28;19960;-70
2023/06/13 12:26:44;;;;;;;;;;;;;;;;;;5075989;28;20410;-70
2023/06/13 12:29:13;;;;;;;;;;;;;;;;;;5075459;28;20058;-70
2023/06/13 12:31:41;;;;;;;;;;;;;;;;;;5075141;28;20417;-70
2023/06/13 12:34:07;;;;;;;;;;;;;;;;;;5073703;28;19983;-70
2023/06/13 12:36:33;;;;;;;;;;;;;;;;;;5075019;28;19987;-70
2023/06/13 12:38:59;;;;;;;;;;;;;;;;;;5075519;28;20097;-70
2023/06/13 12:41:26;;;;;;;;;;;;;;;;;;5074815;28;20101;-70
2023/06/13 12:43:52;;;;;;;;;;;;;;;;;;5074653;28;19991;-70
2023/06/13 12:46:18;;;;;;;;;;;;;;;;;;5074753;28;19963;-70
2023/06/13 12:48:44;;;;;;;;;;;;;;;;;;5075003;28;19962;-70
2023/06/13 12:51:10;;;;;;;;;;;;;;;;;;5074653;28;19960;-70
2023/06/13 12:53:36;;;;;;;;;;;;;;;;;;5074936;28;19963;-70
2023/06/13 12:56:02;;;;;;;;;;;;;;;;;;5074595;28;20073;-70
2023/06/13 12:58:29;;;;;;;;;;;;;;;;;;5074565;28;19955;-70
2023/06/13 13:00:55;;;;;;;;;;;;;;;;;;5074380;28;20100;-70
2023/06/13 13:03:21;;;;;;;;;;;;;;;;;;5074741;28;20038;-70
2023/06/13 13:05:49;;;;;;;;;;;;;;;;;;5074362;28;20372;-70
2023/06/13 13:08:15;;;;;;;;;;;;;;;;;;5074432;28;19964;-70
2023/06/13 13:10:41;;;;;;;;;;;;;;;;;;5074917;28;20367;-70
2023/06/13 13:13:07;;;;;;;;;;;;;;;;;;5074615;28;19963;-70
2023/06/13 13:15:33;;;;;;;;;;;;;;;;;;5074261;28;19955;-70
2023/06/13 13:17:59;;;;;;;;;;;;;;;;;;5073975;28;20046;-70
2023/06/13 13:20:25;;;;;;;;;;;;;;;;;;5074057;28;20483;-70
2023/06/13 13:22:51;;;;;;;;;;;;;;;;;;5074150;28;19962;-70
2023/06/13 13:25:17;;;;;;;;;;;;;;;;;;5074368;28;20326;-70
2023/06/13 13:27:44;;;;;;;;;;;;;;;;;;5074589;28;19956;-70
2023/06/13 13:30:11;;;;;;;;;;;;;;;;;;5074284;28;19991;-70
2023/06/13 13:32:37;;;;;;;;;;;;;;;;;;5072394;28;20003;-70
2023/06/13 13:35:03;;;;;;;;;;;;;;;;;;5074379;28;20458;-70
2023/06/13 13:37:30;;;;;;;;;;;;;;;;;;5074212;28;19963;-70
2023/06/13 13:39:56;;;;;;;;;;;;;;;;;;5074395;28;19979;-70
2023/06/13 13:42:22;;;;;;;;;;;;;;;;;;5072324;28;19997;-70
2023/06/13 13:44:47;;;;;;;;;;;;;;;;;;5074336;28;19963;-70
2023/06/13 13:47:13;;;;;;;;;;;;;;;;;;5073759;28;19963;-70
2023/06/13 13:49:39;;;;;;;;;;;;;;;;;;5074283;28;20356;-70
2023/06/13 13:52:05;;;;;;;;;;;;;;;;;;5073975;28;20046;-70
2023/06/13 13:54:31;;;;;;;;;;;;;;;;;;5073672;28;20349;-70
2023/06/13 13:56:57;;;;;;;;;;;;;;;;;;5073668;28;19956;-70
2023/06/13 13:59:23;;;;;;;;;;;;;;;;;;5073655;28;20364;-70
2023/06/13 14:01:49;;;;;;;;;;;;;;;;;;5073524;28;20010;-70
2023/06/13 14:04:18;;;;;;;;;;;;;;;;;;5073870;28;19956;-70
2023/06/13 14:06:44;;;;;;;;;;;;;;;;;;5073601;28;19956;-70
2023/06/13 14:09:13;;;;;;;;;;;;;;;;;;5073497;28;20489;-70
2023/06/13 14:11:38;;;;;;;;;;;;;;;;;;5072011;28;20396;-70
2023/06/13 14:14:04;;;;;;;;;;;;;;;;;;5073510;28;19999;-70
2023/06/13 14:16:32;;;;;;;;;;;;;;;;;;5073554;28;19959;-70
2023/06/13 14:18:58;;;;;;;;;;;;;;;;;;5074062;28;19955;-70
2023/06/13 14:21:24;;;;;;;;;;;;;;;;;;5073326;28;20451;-70
2023/06/13 14:23:50;;;;;;;;;;;;;;;;;;5073670;28;19977;-70
2023/06/13 14:26:16;;;;;;;;;;;;;;;;;;5073879;28;19967;-70
2023/06/13 14:28:42;;;;;;;;;;;;;;;;;;5073539;28;19962;-70
2023/06/13 14:31:08;;;;;;;;;;;;;;;;;;5077653;28;19955;-70
2023/06/13 14:33:34;;;;;;;;;;;;;;;;;;5077537;28;20021;-70
2023/06/13 14:36:00;;;;;;;;;;;;;;;;;;5077601;28;20034;-70
2023/06/13 14:38:26;;;;;;;;;;;;;;;;;;5077249;28;19994;-70
2023/06/13 14:40:51;;;;;;;;;;;;;;;;;;5077112;28;19981;-70
2023/06/13 14:43:17;;;;;;;;;;;;;;;;;;5076917;28;20037;-70
2023/06/13 14:45:43;;;;;;;;;;;;;;;;;;5077368;28;19978;-70
2023/06/13 14:48:09;;;;;;;;;;;;;;;;;;5077305;28;19963;-70
2023/06/13 14:50:35;;;;;;;;;;;;;;;;;;5077576;28;19992;-70
2023/06/13 14:53:02;;;;;;;;;;;;;;;;;;5076930;28;20417;-70
2023/06/13 14:55:29;;;;;;;;;;;;;;;;;;5076950;28;20333;-70
2023/06/13 14:57:55;;;;;;;;;;;;;;;;;;5076923;28;19956;-70
2023/06/13 15:00:21;;;;;;;;;;;;;;;;;;5077067;28;20044;-70
2023/06/13 15:02:47;;;;;;;;;;;;;;;;;;5076782;28;19956;-70
2023/06/13 15:05:13;;;;;;;;;;;;;;;;;;5076990;28;20060;-70
2023/06/13 15:07:40;;;;;;;;;;;;;;;;;;5076921;28;19960;-70
2023/06/13 15:10:06;;;;;;;;;;;;;;;;;;5075342;28;19985;-70
2023/06/13 15:12:32;;;;;;;;;;;;;;;;;;5076446;28;20405;-70
2023/06/13 15:14:57;;;;;;;;;;;;;;;;;;5076466;28;19962;-70
2023/06/13 15:17:23;;;;;;;;;;;;;;;;;;5076792;28;19959;-70
2023/06/13 15:19:49;;;;;;;;;;;;;;;;;;5076671;28;19983;-70
2023/06/13 15:22:15;;;;;;;;;;;;;;;;;;5076429;28;19970;-70
2023/06/13 15:24:41;;;;;;;;;;;;;;;;;;5076620;28;19978;-70
2023/06/13 15:27:07;;;;;;;;;;;;;;;;;;5076824;28;19956;-70
2023/06/13 15:29:33;;;;;;;;;;;;;;;;;;5076571;28;19956;-70
2023/06/13 15:31:59;;;;;;;;;;;;;;;;;;5076189;28;19962;-70
2023/06/13 15:34:27;;;;;;;;;;;;;;;;;;5076123;28;20109;-70
2023/06/13 15:36:53;;;;;;;;;;;;;;;;;;5076239;28;19955;-70
2023/06/13 15:39:19;;;;;;;;;;;;;;;;;;5076458;28;19956;-70
2023/06/13 15:41:45;;;;;;;;;;;;;;;;;;5075900;28;20441;-70
2023/06/13 15:44:11;;;;;;;;;;;;;;;;;;5076029;28;20002;-70
2023/06/13 15:46:37;;;;;;;;;;;;;;;;;;5075970;28;19959;-70
2023/06/13 15:49:03;;;;;;;;;;;;;;;;;;5076468;28;20459;-70
2023/06/13 15:51:28;;;;;;;;;;;;;;;;;;5076160;28;20324;-70
2023/06/13 15:53:55;;;;;;;;;;;;;;;;;;5076122;28;20473;-70
2023/06/13 15:56:21;;;;;;;;;;;;;;;;;;5075845;28;19955;-70
2023/06/13 15:58:47;;;;;;;;;;;;;;;;;;5076044;28;19963;-70
2023/06/13 16:01:13;;;;;;;;;;;;;;;;;;5075639;28;20091;-70
2023/06/13 16:03:39;;;;;;;;;;;;;;;;;;5075619;28;19960;-70
2023/06/13 16:06:05;;;;;;;;;;;;;;;;;;5075656;28;20108;-70
2023/06/13 16:08:31;;;;;;;;;;;;;;;;;;5076377;28;19960;-70
2023/06/13 16:10:57;;;;;;;;;;;;;;;;;;5075799;28;20001;-70
2023/06/13 16:13:23;;;;;;;;;;;;;;;;;;5075467;28;19956;-70
2023/06/13 16:15:49;;;;;;;;;;;;;;;;;;5075695;28;20328;-70
2023/06/13 16:18:15;;;;;;;;;;;;;;;;;;5075976;28;19960;-70
2023/06/13 16:20:42;;;;;;;;;;;;;;;;;;5075211;28;20510;-70
2023/06/13 16:23:08;;;;;;;;;;;;;;;;;;5075625;28;19956;-70
2023/06/13 16:25:34;;;;;;;;;;;;;;;;;;5075232;28;20020;-70
2023/06/13 16:28:00;;;;;;;;;;;;;;;;;;5075728;28;19962;-70
2023/06/13 16:30:26;;;;;;;;;;;;;;;;;;5075724;28;19959;-70
2023/06/13 16:32:52;;;;;;;;;;;;;;;;;;5075068;28;20406;-70
2023/06/13 16:35:18;;;;;;;;;;;;;;;;;;5075026;28;20021;-70
2023/06/13 16:37:44;;;;;;;;;;;;;;;;;;5074973;28;20333;-70